Balloonar Eclipse!

Here in Kansas City, we’re on the very edge of the eclipse path, and it was a beautiful night for a balloon flight too. (KOJC 210053Z 34006KT 10SM CLR 22/09 A3013 RMK AO2 SLP196 T02170094). As I was out looking at the eclipse, along comes Jason Jones of Old World Balloonery with a load of passengers, and I got a balloonar eclipse as a bonus.

My crappy phone camera gave me neat lens flare showing the eclipse in progress next to the balloon:

 

0 Comments On “Balloonar Eclipse!”

Leave a Reply

Your email address will not be published.